createdAt,value
2023-05-06T00:01:06.489Z,7
2023-05-06T00:02:14.866Z,7
2023-05-06T00:03:23.436Z,9
2023-05-06T00:04:31.751Z,9
2023-05-06T00:05:40.064Z,9
2023-05-06T00:06:49.450Z,8.6
2023-05-06T00:07:57.784Z,8.6
2023-05-06T00:09:06.134Z,8.6
2023-05-06T00:10:14.678Z,7.6
2023-05-06T00:11:23.006Z,7.6
2023-05-06T00:12:31.340Z,7.6
2023-05-06T00:13:39.902Z,9.3
2023-05-06T00:14:48.197Z,9.3
2023-05-06T00:15:56.576Z,9.3
2023-05-06T00:17:05.101Z,8.4
2023-05-06T00:18:13.467Z,8.4
2023-05-06T00:19:21.804Z,8.4
2023-05-06T00:20:30.339Z,8.7
2023-05-06T00:21:38.698Z,8.7
2023-05-06T00:22:47.047Z,8.7
2023-05-06T00:23:55.614Z,8.4
2023-05-06T00:25:03.967Z,8.4
2023-05-06T00:26:12.300Z,8.4
2023-05-06T00:27:20.853Z,7.7
2023-05-06T00:28:29.173Z,7.7
2023-05-06T00:29:37.593Z,7.7
2023-05-06T00:30:46.387Z,9.7
2023-05-06T00:31:54.410Z,9.7
2023-05-06T00:33:02.757Z,9.7
2023-05-06T00:34:11.287Z,10.7
2023-05-06T00:35:19.588Z,10.7
2023-05-06T00:36:27.982Z,10.7
2023-05-06T00:37:36.538Z,11.6
2023-05-06T00:38:44.880Z,11.6
2023-05-06T00:39:53.261Z,11.6
2023-05-06T00:41:01.769Z,13.3
2023-05-06T00:42:10.140Z,13.3
2023-05-06T00:43:18.459Z,13.3
2023-05-06T00:44:27.009Z,11.5
2023-05-06T00:45:35.480Z,11.5
2023-05-06T00:46:43.679Z,11.5
2023-05-06T00:47:52.272Z,11.4
2023-05-06T00:49:00.575Z,11.4
2023-05-06T00:50:08.933Z,11.4
2023-05-06T00:51:17.472Z,10.7
2023-05-06T00:52:25.898Z,10.7
2023-05-06T00:53:34.178Z,10.7
2023-05-06T00:54:42.732Z,12.3
2023-05-06T00:55:51.054Z,12.3
2023-05-06T00:56:59.422Z,12.3
2023-05-06T00:58:07.950Z,9.5
2023-05-06T00:59:16.294Z,9.5
2023-05-06T01:00:24.621Z,9.5
2023-05-06T01:01:33.399Z,10.6
2023-05-06T01:02:47.307Z,10.6
2023-05-06T01:03:49.900Z,10.6
2023-05-06T01:04:58.395Z,11.1
2023-05-06T01:06:06.733Z,11.1
2023-05-06T01:07:15.097Z,11.1
2023-05-06T01:08:23.657Z,10.4
2023-05-06T01:09:32.006Z,10.4
2023-05-06T01:10:40.337Z,10.4
2023-05-06T01:11:48.900Z,10.1
2023-05-06T01:12:57.224Z,10.1
2023-05-06T01:14:05.566Z,10.1
2023-05-06T01:15:14.083Z,10.6
2023-05-06T01:16:22.438Z,10.6
2023-05-06T01:17:30.870Z,10.6
2023-05-06T01:18:39.295Z,9.7
2023-05-06T01:19:47.627Z,9.7
2023-05-06T01:20:55.992Z,9.7
2023-05-06T01:22:04.516Z,10.6
2023-05-06T01:23:12.839Z,10.6
2023-05-06T01:24:21.164Z,10.6
2023-05-06T01:25:29.701Z,11.8
2023-05-06T01:26:38.162Z,11.8
2023-05-06T01:27:46.942Z,11.8
2023-05-06T01:28:55.529Z,12.2
2023-05-06T01:30:03.854Z,12.2
2023-05-06T01:31:12.220Z,12.2
2023-05-06T01:32:20.786Z,11.7
2023-05-06T01:33:29.182Z,11.7
2023-05-06T01:34:37.387Z,11.7
2023-05-06T01:35:45.938Z,12.3
2023-05-06T01:36:54.302Z,12.3
2023-05-06T01:38:02.606Z,12.3
2023-05-06T01:39:11.183Z,11.1
2023-05-06T01:40:19.509Z,11.1
2023-05-06T01:41:27.858Z,11.1
2023-05-06T01:42:36.388Z,11.1
2023-05-06T01:43:44.736Z,11.1
2023-05-06T01:44:53.067Z,11.1
2023-05-06T01:46:01.683Z,11.5
2023-05-06T01:47:09.962Z,11.5
2023-05-06T01:48:18.322Z,11.5
2023-05-06T01:49:26.972Z,12
2023-05-06T01:50:35.223Z,12
2023-05-06T01:51:43.584Z,12
2023-05-06T01:52:52.141Z,11.3
2023-05-06T01:54:00.464Z,11.3
2023-05-06T01:55:08.966Z,11.3
2023-05-06T01:56:17.360Z,11.8
2023-05-06T01:57:25.723Z,11.8
2023-05-06T01:58:34.034Z,11.8
2023-05-06T01:59:42.598Z,10.4
2023-05-06T02:00:50.918Z,10.4
2023-05-06T02:01:59.290Z,10.4
2023-05-06T02:03:07.829Z,12.1
2023-05-06T02:04:16.132Z,12.1
2023-05-06T02:05:24.615Z,12.1
2023-05-06T02:06:33.078Z,13.1
2023-05-06T02:07:41.408Z,13.1
2023-05-06T02:08:49.773Z,13.1
2023-05-06T02:09:58.288Z,11
2023-05-06T02:11:06.654Z,11
2023-05-06T02:12:15.005Z,11
2023-05-06T02:13:23.556Z,11.5
2023-05-06T02:14:31.892Z,11.5
2023-05-06T02:15:40.229Z,11.5
2023-05-06T02:16:49.493Z,12.3
2023-05-06T02:17:57.870Z,12.3
2023-05-06T02:19:06.167Z,12.3
2023-05-06T02:20:14.714Z,12.2
2023-05-06T02:21:23.146Z,12.2
2023-05-06T02:22:31.359Z,12.2
2023-05-06T02:23:39.915Z,12.8
2023-05-06T02:24:48.267Z,12.8
2023-05-06T02:25:56.590Z,12.8
2023-05-06T02:27:05.132Z,11.5
2023-05-06T02:28:13.453Z,11.5
2023-05-06T02:29:21.827Z,11.5
2023-05-06T02:30:30.390Z,11.7
2023-05-06T02:31:38.759Z,11.7
2023-05-06T02:32:47.143Z,11.7
2023-05-06T02:33:55.612Z,12.3
2023-05-06T02:35:03.926Z,12.3
2023-05-06T02:36:12.286Z,12.3
2023-05-06T02:37:20.865Z,11.7
2023-05-06T02:38:29.150Z,11.7
2023-05-06T02:39:37.493Z,11.7
2023-05-06T02:40:46.066Z,12.5
2023-05-06T02:41:54.382Z,12.5
2023-05-06T02:43:02.795Z,12.5
2023-05-06T02:44:11.232Z,11.6
2023-05-06T02:45:19.576Z,11.6
2023-05-06T02:46:27.908Z,11.6
2023-05-06T02:47:36.456Z,11.5
2023-05-06T02:48:44.799Z,11.5
2023-05-06T02:49:53.152Z,11.5
2023-05-06T02:51:01.701Z,12.6
2023-05-06T02:52:10.020Z,12.6
2023-05-06T02:53:18.459Z,12.6
2023-05-06T02:54:26.880Z,12.7
2023-05-06T02:55:35.220Z,12.7
2023-05-06T02:56:43.546Z,12.7
2023-05-06T02:57:52.087Z,11.3
2023-05-06T02:59:00.416Z,11.3
2023-05-06T03:00:08.768Z,11.3
2023-05-06T03:01:17.330Z,12
2023-05-06T03:02:25.657Z,12
2023-05-06T03:03:33.974Z,12
2023-05-06T03:04:42.509Z,11.5
2023-05-06T03:05:50.860Z,11.5
2023-05-06T03:06:59.176Z,11.5
2023-05-06T03:08:07.713Z,12.6
2023-05-06T03:09:16.264Z,12.6
2023-05-06T03:10:24.387Z,12.6
2023-05-06T03:11:32.941Z,11.2
2023-05-06T03:12:41.279Z,11.2
2023-05-06T03:13:49.597Z,11.2
2023-05-06T03:14:58.143Z,10.8
2023-05-06T03:16:06.528Z,10.8
2023-05-06T03:17:14.809Z,10.8
2023-05-06T03:18:23.381Z,11.4
2023-05-06T03:19:31.683Z,11.4
2023-05-06T03:20:40.018Z,11.4
2023-05-06T03:21:48.658Z,11.9
2023-05-06T03:22:56.896Z,11.9
2023-05-06T03:24:05.216Z,11.9
2023-05-06T03:25:14.160Z,10.7
2023-05-06T03:26:22.078Z,10.7
2023-05-06T03:27:30.406Z,10.7
2023-05-06T03:28:38.983Z,12.2
2023-05-06T03:29:47.307Z,12.2
2023-05-06T03:30:55.663Z,12.2
2023-05-06T03:32:04.228Z,12.5
2023-05-06T03:33:12.546Z,12.5
2023-05-06T03:34:20.874Z,12.5
2023-05-06T03:35:29.443Z,12.4
2023-05-06T03:36:37.744Z,12.4
2023-05-06T03:37:46.080Z,12.4
2023-05-06T03:38:54.614Z,11.8
2023-05-06T03:40:02.969Z,11.8
2023-05-06T03:41:11.375Z,11.8
2023-05-06T03:42:19.835Z,11.6
2023-05-06T03:43:28.164Z,11.6
2023-05-06T03:44:36.492Z,11.6
2023-05-06T03:45:45.080Z,11.9
2023-05-06T03:46:53.429Z,11.9
2023-05-06T03:48:01.787Z,11.9
2023-05-06T03:49:10.299Z,11.6
2023-05-06T03:50:18.640Z,11.6
2023-05-06T03:51:26.973Z,11.6
2023-05-06T03:52:35.509Z,10.9
2023-05-06T03:53:43.831Z,10.9
2023-05-06T03:54:52.181Z,10.9
2023-05-06T03:56:00.722Z,12.5
2023-05-06T03:57:09.146Z,12.5
2023-05-06T03:58:17.367Z,12.5
2023-05-06T03:59:25.920Z,13.3
2023-05-06T04:00:34.286Z,13.3
2023-05-06T04:01:42.629Z,13.3
2023-05-06T04:02:51.241Z,11.4
2023-05-06T04:03:59.517Z,11.4
2023-05-06T04:05:08.081Z,11.4
2023-05-06T04:06:16.361Z,12.1
2023-05-06T04:07:24.693Z,12.1
2023-05-06T04:08:33.026Z,12.1
2023-05-06T04:09:41.599Z,12.4
2023-05-06T04:10:49.966Z,12.4
2023-05-06T04:11:58.271Z,12.4
2023-05-06T04:13:06.949Z,13.5
2023-05-06T04:14:15.154Z,13.5
2023-05-06T04:15:23.483Z,13.5
2023-05-06T04:16:32.058Z,13
2023-05-06T04:17:40.412Z,13
2023-05-06T04:18:48.730Z,13
2023-05-06T04:19:57.298Z,14
2023-05-06T04:21:05.632Z,14
2023-05-06T04:22:13.965Z,14
2023-05-06T04:23:22.514Z,14.4
2023-05-06T04:24:30.848Z,14.4
2023-05-06T04:25:39.199Z,14.4
2023-05-06T04:26:47.732Z,13
2023-05-06T04:27:56.076Z,13
2023-05-06T04:29:04.428Z,13
2023-05-06T04:30:12.952Z,13.5
2023-05-06T04:31:21.292Z,13.5
2023-05-06T04:32:29.652Z,13.5
2023-05-06T04:33:38.153Z,12.7
2023-05-06T04:34:46.485Z,12.7
2023-05-06T04:35:54.849Z,12.7
2023-05-06T04:37:03.352Z,12.3
2023-05-06T04:38:11.684Z,12.3
2023-05-06T04:39:20.022Z,12.3
2023-05-06T04:40:28.534Z,13.7
2023-05-06T04:41:36.879Z,13.7
2023-05-06T04:42:45.206Z,13.7
2023-05-06T04:43:53.761Z,13.4
2023-05-06T04:45:02.147Z,13.4
2023-05-06T04:46:10.657Z,13.4
2023-05-06T04:47:18.987Z,12.9
2023-05-06T04:48:27.326Z,12.9
2023-05-06T04:49:35.662Z,12.9
2023-05-06T04:50:44.205Z,14.4
2023-05-06T04:51:52.542Z,14.4
2023-05-06T04:53:00.872Z,14.4
2023-05-06T04:54:09.418Z,12.8
2023-05-06T04:55:17.793Z,12.8
2023-05-06T04:56:26.089Z,12.8
2023-05-06T04:57:34.642Z,12.8
2023-05-06T04:58:42.967Z,12.8
2023-05-06T04:59:51.297Z,12.8
2023-05-06T05:00:59.981Z,12.4
2023-05-06T05:02:08.194Z,12.4
2023-05-06T05:03:16.589Z,12.4
2023-05-06T05:04:25.090Z,12.5
2023-05-06T05:05:33.431Z,12.5
2023-05-06T05:06:41.751Z,12.5
2023-05-06T05:07:50.294Z,11.2
2023-05-06T05:08:59.446Z,11.2
2023-05-06T05:10:06.964Z,11.2
2023-05-06T05:11:15.510Z,10.9
2023-05-06T05:12:23.832Z,10.9
2023-05-06T05:13:32.178Z,10.9
2023-05-06T05:14:40.746Z,12.5
2023-05-06T05:15:49.063Z,12.5
2023-05-06T05:16:57.563Z,12.5
2023-05-06T05:18:05.965Z,12.9
2023-05-06T05:19:14.277Z,12.9
2023-05-06T05:20:22.635Z,12.9
2023-05-06T05:21:31.168Z,11.6
2023-05-06T05:22:39.539Z,11.6
2023-05-06T05:23:47.843Z,11.6
2023-05-06T05:24:56.401Z,11.7
2023-05-06T05:26:04.713Z,11.7
2023-05-06T05:27:13.054Z,11.7
2023-05-06T05:28:21.616Z,11.2
2023-05-06T05:29:29.929Z,11.2
2023-05-06T05:30:38.262Z,11.2
2023-05-06T05:31:46.867Z,12.2
2023-05-06T05:32:55.261Z,12.2
2023-05-06T05:34:03.477Z,12.2
2023-05-06T05:35:12.298Z,10.3
2023-05-06T05:36:20.383Z,10.3
2023-05-06T05:37:28.715Z,10.3
2023-05-06T05:38:37.263Z,10.1
2023-05-06T05:39:45.622Z,10.1
2023-05-06T05:40:53.922Z,10.1
2023-05-06T05:42:02.521Z,10.6
2023-05-06T05:43:10.803Z,10.6
2023-05-06T05:44:19.138Z,10.6
2023-05-06T05:45:27.666Z,9.3
2023-05-06T05:46:36.051Z,9.3
2023-05-06T05:47:44.317Z,9.3
2023-05-06T05:48:53.008Z,9.2
2023-05-06T05:50:01.231Z,9.2
2023-05-06T05:51:09.526Z,9.2
2023-05-06T05:52:18.070Z,8.3
2023-05-06T05:53:26.394Z,8.3
2023-05-06T05:54:34.762Z,8.3
2023-05-06T05:55:43.291Z,7.9
2023-05-06T05:56:51.643Z,7.9
2023-05-06T05:57:59.982Z,7.9
2023-05-06T05:59:08.579Z,8.4
2023-05-06T06:00:16.890Z,8.4
2023-05-06T06:01:25.245Z,8.4
2023-05-06T06:02:33.859Z,7.5
2023-05-06T06:03:42.246Z,7.5
2023-05-06T06:04:50.725Z,7.5
2023-05-06T06:05:59.012Z,7.2
2023-05-06T06:07:07.359Z,7.2
2023-05-06T06:08:15.711Z,7.2
2023-05-06T06:09:24.267Z,7.2
2023-05-06T06:10:32.596Z,7.2
2023-05-06T06:11:40.926Z,7.2
2023-05-06T06:12:49.459Z,7.7
2023-05-06T06:13:57.847Z,7.7
2023-05-06T06:15:06.169Z,7.7
2023-05-06T06:16:14.708Z,6.5
2023-05-06T06:17:23.072Z,6.5
2023-05-06T06:18:31.422Z,6.5
2023-05-06T06:19:39.952Z,8.5
2023-05-06T06:20:49.027Z,8.5
2023-05-06T06:21:56.623Z,8.5
2023-05-06T06:23:05.175Z,6.5
2023-05-06T06:24:13.498Z,6.5
2023-05-06T06:25:21.856Z,6.5
2023-05-06T06:26:30.375Z,6.5
2023-05-06T06:27:38.743Z,6.5
2023-05-06T06:28:47.084Z,6.5
2023-05-06T06:29:55.613Z,6.8
2023-05-06T06:31:03.964Z,6.8
2023-05-06T06:32:12.318Z,6.8
2023-05-06T06:33:20.831Z,5.4
2023-05-06T06:34:29.168Z,5.4
2023-05-06T06:35:37.514Z,5.4
2023-05-06T06:36:46.061Z,5.6
2023-05-06T06:37:54.406Z,5.6
2023-05-06T06:39:02.727Z,5.6
2023-05-06T06:40:11.258Z,4.9
2023-05-06T06:41:19.629Z,4.9
2023-05-06T06:42:27.938Z,4.9
2023-05-06T06:43:36.494Z,3.7
2023-05-06T06:44:44.833Z,3.7
2023-05-06T06:45:53.187Z,3.7
2023-05-06T06:47:01.704Z,4.1
2023-05-06T06:48:10.099Z,4.1
2023-05-06T06:49:18.391Z,4.1
2023-05-06T06:50:26.918Z,6.2
2023-05-06T06:51:35.263Z,6.2
2023-05-06T06:52:43.707Z,6.2
2023-05-06T06:53:52.153Z,4.8
2023-05-06T06:55:00.500Z,4.8
2023-05-06T06:56:08.837Z,4.8
2023-05-06T06:57:17.397Z,3.4
2023-05-06T06:58:25.724Z,3.4
2023-05-06T06:59:34.069Z,3.4
2023-05-06T07:00:42.622Z,4.3
2023-05-06T07:01:51.947Z,4.3
2023-05-06T07:03:00.431Z,4.3
2023-05-06T07:04:08.891Z,3.9
2023-05-06T07:05:17.235Z,3.9
2023-05-06T07:06:25.582Z,3.9
2023-05-06T07:07:34.123Z,4.1
2023-05-06T07:08:42.571Z,4.1
2023-05-06T07:09:50.813Z,4.1
2023-05-06T07:10:59.357Z,3.7
2023-05-06T07:12:07.704Z,3.7
2023-05-06T07:13:16.125Z,3.7
2023-05-06T07:14:24.612Z,3.9
2023-05-06T07:15:32.959Z,3.9
2023-05-06T07:16:42.114Z,3.9
2023-05-06T07:17:49.867Z,4.9
2023-05-06T07:18:58.208Z,4.9
2023-05-06T07:20:06.518Z,4.9
2023-05-06T07:21:15.064Z,4.9
2023-05-06T07:22:23.435Z,4.9
2023-05-06T07:23:32.216Z,4.9
2023-05-06T07:24:40.326Z,4.9
2023-05-06T07:25:48.649Z,4.9
2023-05-06T07:26:57.107Z,4.9
2023-05-06T07:28:05.640Z,4.6
2023-05-06T07:29:13.969Z,4.6
2023-05-06T07:30:23.134Z,4.6
2023-05-06T07:31:30.839Z,4.3
2023-05-06T07:32:39.181Z,4.3
2023-05-06T07:33:47.479Z,4.3
2023-05-06T07:34:55.986Z,4.4
2023-05-06T07:36:04.295Z,4.4
2023-05-06T07:37:12.653Z,4.4
2023-05-06T07:38:21.180Z,4.9
2023-05-06T07:39:29.500Z,4.9
2023-05-06T07:40:37.905Z,4.9
2023-05-06T07:41:46.369Z,4.9
2023-05-06T07:42:54.699Z,4.9
2023-05-06T07:44:03.025Z,4.9
2023-05-06T07:45:11.789Z,4.6
2023-05-06T07:46:19.918Z,4.6
2023-05-06T07:47:28.310Z,4.6
2023-05-06T07:48:36.782Z,4.8
2023-05-06T07:49:45.109Z,4.8
2023-05-06T07:50:53.450Z,4.8
2023-05-06T07:52:02.006Z,4.1
2023-05-06T07:53:10.340Z,4.1
2023-05-06T07:54:18.666Z,4.1
2023-05-06T07:55:27.209Z,3.5
2023-05-06T07:56:35.638Z,3.5
2023-05-06T07:57:43.911Z,3.5
2023-05-06T07:58:52.490Z,4.5
2023-05-06T08:00:00.860Z,4.5
2023-05-06T08:01:09.200Z,4.5
2023-05-06T08:02:17.761Z,4.2
2023-05-06T08:03:26.357Z,4.2
2023-05-06T08:04:34.516Z,4.2
2023-05-06T08:05:42.985Z,3.1
2023-05-06T08:06:51.346Z,3.1
2023-05-06T08:07:59.676Z,3.1
2023-05-06T08:09:08.216Z,4.8
2023-05-06T08:10:16.559Z,4.8
2023-05-06T08:11:24.894Z,4.8
2023-05-06T08:12:33.584Z,4.6
2023-05-06T08:13:41.772Z,4.6
2023-05-06T08:14:50.118Z,4.6
2023-05-06T08:15:58.705Z,3.6
2023-05-06T08:17:07.030Z,3.6
2023-05-06T08:18:22.150Z,3.6
2023-05-06T08:19:23.912Z,3.7
2023-05-06T08:20:32.260Z,3.7
2023-05-06T08:21:40.584Z,3.7
2023-05-06T08:22:49.140Z,2.6
2023-05-06T08:23:57.466Z,2.6
2023-05-06T08:25:05.806Z,2.6
2023-05-06T08:26:14.360Z,3.1
2023-05-06T08:27:22.687Z,3.1
2023-05-06T08:28:31.124Z,3.1
2023-05-06T08:29:39.592Z,2.4
2023-05-06T08:30:47.924Z,2.4
2023-05-06T08:31:56.324Z,2.4
2023-05-06T08:33:04.834Z,2.6
2023-05-06T08:34:13.158Z,2.6
2023-05-06T08:35:21.545Z,2.6
2023-05-06T08:36:30.103Z,2.5
2023-05-06T08:37:38.500Z,2.5
2023-05-06T08:38:46.820Z,2.5
2023-05-06T08:39:55.364Z,2.7
2023-05-06T08:41:03.773Z,2.7
2023-05-06T08:42:12.088Z,2.7
2023-05-06T08:43:20.630Z,2.4
2023-05-06T08:44:29.110Z,2.4
2023-05-06T08:45:37.290Z,2.4
2023-05-06T08:46:45.900Z,2.3
2023-05-06T08:47:54.280Z,2.3
2023-05-06T08:49:02.629Z,2.3
2023-05-06T08:50:11.210Z,2.3
2023-05-06T08:51:19.545Z,2.3
2023-05-06T08:52:27.906Z,2.3
2023-05-06T08:53:36.458Z,3
2023-05-06T08:54:44.804Z,3
2023-05-06T08:55:53.157Z,3
2023-05-06T08:57:01.693Z,2.2
2023-05-06T08:58:10.040Z,2.2
2023-05-06T08:59:18.417Z,2.2
2023-05-06T09:00:27.034Z,3
2023-05-06T09:01:35.295Z,3
2023-05-06T09:02:43.680Z,3
2023-05-06T09:03:52.217Z,2.1
2023-05-06T09:05:00.518Z,2.1
2023-05-06T09:06:08.860Z,2.1
2023-05-06T09:07:17.395Z,2
2023-05-06T09:08:25.738Z,2
2023-05-06T09:09:34.053Z,2
2023-05-06T09:10:42.594Z,2.7
2023-05-06T09:11:50.909Z,2.7
2023-05-06T09:12:59.276Z,2.7
2023-05-06T09:14:07.790Z,1.4
2023-05-06T09:15:16.131Z,1.4
2023-05-06T09:16:24.557Z,1.4
2023-05-06T09:17:33.027Z,2.4
2023-05-06T09:18:41.316Z,2.4
2023-05-06T09:19:49.657Z,2.4
2023-05-06T09:21:00.129Z,1.7
2023-05-06T09:22:06.555Z,1.7
2023-05-06T09:23:14.883Z,1.7
2023-05-06T09:24:23.487Z,2
2023-05-06T09:25:31.827Z,2
2023-05-06T09:26:40.160Z,2
2023-05-06T09:27:48.677Z,2.2
2023-05-06T09:28:56.990Z,2.2
2023-05-06T09:30:05.338Z,2.2
2023-05-06T09:31:13.904Z,2.1
2023-05-06T09:32:22.303Z,2.1
2023-05-06T09:33:30.527Z,2.1
2023-05-06T09:34:39.052Z,1.9
2023-05-06T09:35:47.375Z,1.9
2023-05-06T09:36:55.700Z,1.9
2023-05-06T09:38:05.905Z,2.1
2023-05-06T09:39:12.572Z,2.1
2023-05-06T09:40:20.908Z,2.1
2023-05-06T09:41:29.451Z,2.4
2023-05-06T09:42:37.787Z,2.4
2023-05-06T09:43:46.138Z,2.4
2023-05-06T09:44:54.690Z,2
2023-05-06T09:46:03.059Z,2
2023-05-06T09:47:11.367Z,2
2023-05-06T09:48:19.990Z,3.3
2023-05-06T09:49:28.251Z,3.3
2023-05-06T09:50:36.587Z,3.3
2023-05-06T09:51:45.132Z,3.7
2023-05-06T09:52:53.481Z,3.7
2023-05-06T09:54:01.820Z,3.7
2023-05-06T09:55:10.478Z,1.2
2023-05-06T09:56:18.680Z,1.2
2023-05-06T09:57:27.028Z,1.2
2023-05-06T09:58:35.582Z,1.6
2023-05-06T09:59:43.929Z,1.6
2023-05-06T10:00:52.272Z,1.6
2023-05-06T10:02:00.850Z,1.7
2023-05-06T10:03:09.295Z,1.7
2023-05-06T10:04:17.768Z,1.7
2023-05-06T10:05:26.087Z,2
2023-05-06T10:06:34.378Z,2
2023-05-06T10:07:42.723Z,2
2023-05-06T10:08:51.338Z,1.6
2023-05-06T10:09:59.699Z,1.6
2023-05-06T10:11:08.040Z,1.6
2023-05-06T10:12:16.582Z,2.7
2023-05-06T10:13:25.051Z,2.7
2023-05-06T10:14:33.397Z,2.7
2023-05-06T10:15:42.068Z,1.7
2023-05-06T10:16:50.375Z,1.7
2023-05-06T10:17:58.779Z,1.7
2023-05-06T10:19:07.306Z,2.8
2023-05-06T10:20:15.752Z,2.8
2023-05-06T10:21:23.981Z,2.8
2023-05-06T10:22:32.516Z,2.4
2023-05-06T10:23:40.886Z,2.4
2023-05-06T10:24:49.252Z,2.4
2023-05-06T10:25:57.796Z,1.3
2023-05-06T10:27:06.150Z,1.3
2023-05-06T10:28:20.763Z,1.3
2023-05-06T10:29:23.053Z,3
2023-05-06T10:30:31.399Z,3
2023-05-06T10:31:39.749Z,3
2023-05-06T10:32:48.305Z,1.6
2023-05-06T10:33:56.628Z,1.6
2023-05-06T10:35:04.966Z,1.6
2023-05-06T10:36:13.654Z,2.2
2023-05-06T10:37:21.870Z,2.2
2023-05-06T10:38:30.210Z,2.2
2023-05-06T10:39:40.328Z,2.1
2023-05-06T10:40:47.135Z,2.1
2023-05-06T10:41:55.479Z,2.1
2023-05-06T10:43:04.003Z,1.6
2023-05-06T10:44:12.403Z,1.6
2023-05-06T10:45:20.834Z,1.6
2023-05-06T10:46:29.324Z,2.3
2023-05-06T10:47:37.676Z,2.3
2023-05-06T10:48:45.978Z,2.3
2023-05-06T10:49:54.523Z,3.2
2023-05-06T10:51:02.873Z,3.2
2023-05-06T10:52:11.530Z,3.2
2023-05-06T10:53:19.831Z,3.2
2023-05-06T10:54:28.160Z,3.2
2023-05-06T10:55:36.498Z,3.2
2023-05-06T10:56:46.365Z,1.9
2023-05-06T10:57:53.478Z,1.9
2023-05-06T10:59:01.821Z,1.9
2023-05-06T11:00:10.413Z,3.1
2023-05-06T11:01:18.802Z,3.1
2023-05-06T11:02:27.191Z,3.1
2023-05-06T11:03:35.698Z,5.1
2023-05-06T11:04:43.991Z,5.1
2023-05-06T11:05:52.328Z,5.1
2023-05-06T11:07:00.899Z,3
2023-05-06T11:08:09.332Z,3
2023-05-06T11:09:17.621Z,3
2023-05-06T11:10:26.173Z,2.9
2023-05-06T11:11:34.493Z,2.9
2023-05-06T11:12:42.841Z,2.9
2023-05-06T11:13:51.363Z,2.2
2023-05-06T11:14:59.706Z,2.2
2023-05-06T11:16:08.046Z,2.2
2023-05-06T11:17:16.585Z,3.1
2023-05-06T11:18:24.945Z,3.1
2023-05-06T11:19:33.259Z,3.1
2023-05-06T11:20:41.803Z,20
2023-05-06T11:21:50.701Z,20
2023-05-06T11:22:58.462Z,20
2023-05-06T11:24:07.123Z,8.1
2023-05-06T11:25:15.338Z,8.1
2023-05-06T11:26:23.663Z,8.1
2023-05-06T11:27:32.194Z,2.1
2023-05-06T11:28:40.524Z,2.1
2023-05-06T11:29:48.907Z,2.1
2023-05-06T11:30:57.476Z,8.1
2023-05-06T11:32:05.795Z,8.1
2023-05-06T11:33:14.120Z,8.1
2023-05-06T11:34:22.672Z,1.7
2023-05-06T11:35:31.012Z,1.7
2023-05-06T11:36:39.340Z,1.7
2023-05-06T11:37:47.908Z,2.8
2023-05-06T11:38:56.242Z,2.8
2023-05-06T11:40:04.700Z,2.8
2023-05-06T11:41:13.139Z,1.8
2023-05-06T11:42:21.477Z,1.8
2023-05-06T11:43:29.849Z,1.8
2023-05-06T11:44:38.405Z,2.5
2023-05-06T11:45:46.768Z,2.5
2023-05-06T11:46:55.071Z,2.5
2023-05-06T11:48:03.634Z,2.3
2023-05-06T11:49:11.948Z,2.3
2023-05-06T11:50:20.284Z,2.3
2023-05-06T11:51:29.096Z,1.4
2023-05-06T11:52:37.341Z,1.4
2023-05-06T11:53:45.597Z,1.4
2023-05-06T11:54:54.142Z,1.5
2023-05-06T11:56:02.678Z,1.5
2023-05-06T11:57:11.434Z,1.5
2023-05-06T11:58:19.906Z,2.9
2023-05-06T11:59:28.233Z,2.9
2023-05-06T12:00:36.595Z,2.9
2023-05-06T12:01:45.158Z,1.7
2023-05-06T12:02:53.566Z,1.7
2023-05-06T12:04:02.014Z,1.7
2023-05-06T12:05:10.404Z,1.7
2023-05-06T12:06:18.747Z,1.7
2023-05-06T12:07:27.134Z,1.7
2023-05-06T12:08:35.706Z,2.1
2023-05-06T12:09:44.060Z,2.1
2023-05-06T12:10:52.417Z,2.1
2023-05-06T12:12:01.126Z,2.1
2023-05-06T12:13:09.302Z,2.1
2023-05-06T12:14:17.616Z,2.1
2023-05-06T12:15:26.159Z,1.9
2023-05-06T12:16:34.560Z,1.9
2023-05-06T12:17:42.853Z,1.9
2023-05-06T12:18:51.432Z,1.9
2023-05-06T12:19:59.786Z,1.9
2023-05-06T12:21:08.132Z,1.9
2023-05-06T12:22:16.718Z,2.2
2023-05-06T12:23:25.020Z,2.2
2023-05-06T12:24:33.347Z,2.2
2023-05-06T12:25:41.898Z,2.3
2023-05-06T12:26:50.228Z,2.3
2023-05-06T12:27:58.572Z,2.3
2023-05-06T12:29:07.079Z,1.8
2023-05-06T12:30:15.436Z,1.8
2023-05-06T12:31:23.864Z,1.8
2023-05-06T12:32:32.347Z,1.7
2023-05-06T12:33:40.646Z,1.7
2023-05-06T12:34:49.008Z,1.7
2023-05-06T12:35:57.547Z,2.6
2023-05-06T12:37:05.871Z,2.6
2023-05-06T12:38:14.217Z,2.6
2023-05-06T12:39:22.748Z,1.4
2023-05-06T12:40:31.100Z,1.4
2023-05-06T12:41:39.431Z,1.4
2023-05-06T12:42:48.031Z,2.3
2023-05-06T12:43:56.511Z,2.3
2023-05-06T12:45:04.732Z,2.3
2023-05-06T12:46:13.388Z,1.7
2023-05-06T12:47:21.636Z,1.7
2023-05-06T12:48:30.010Z,1.7
2023-05-06T12:49:38.522Z,1.7
2023-05-06T12:50:46.911Z,1.7
2023-05-06T12:51:55.310Z,1.7
2023-05-06T12:53:03.869Z,1.8
2023-05-06T12:54:12.188Z,1.8
2023-05-06T12:55:20.533Z,1.8
2023-05-06T12:56:29.097Z,1.3
2023-05-06T12:57:37.451Z,1.3
2023-05-06T12:58:45.774Z,1.3
2023-05-06T12:59:54.375Z,1.6
2023-05-06T13:01:02.744Z,1.6
2023-05-06T13:02:11.106Z,1.6
2023-05-06T13:03:19.803Z,1.5
2023-05-06T13:04:27.933Z,1.5
2023-05-06T13:05:37.670Z,1.5
2023-05-06T13:06:46.215Z,1.7
2023-05-06T13:07:54.547Z,1.7
2023-05-06T13:09:02.875Z,1.7
2023-05-06T13:10:11.949Z,2.3
2023-05-06T13:11:19.785Z,2.3
2023-05-06T13:12:28.116Z,2.3
2023-05-06T13:13:36.662Z,1.3
2023-05-06T13:14:44.989Z,1.3
2023-05-06T13:15:53.430Z,1.3
2023-05-06T13:17:01.900Z,1.9
2023-05-06T13:18:10.210Z,1.9
2023-05-06T13:19:31.381Z,1.9
2023-05-06T13:20:27.114Z,1.6
2023-05-06T13:21:35.430Z,1.6
2023-05-06T13:22:53.592Z,1.6
2023-05-06T13:23:52.299Z,2
2023-05-06T13:25:00.638Z,2
2023-05-06T13:26:08.976Z,2
2023-05-06T13:27:17.511Z,1.4
2023-05-06T13:28:25.840Z,1.4
2023-05-06T13:29:34.183Z,1.4
2023-05-06T13:30:42.742Z,2.2
2023-05-06T13:31:51.168Z,2.2
2023-05-06T13:32:59.430Z,2.2
2023-05-06T13:34:08.033Z,2.1
2023-05-06T13:35:16.384Z,2.1
2023-05-06T13:36:24.709Z,2.1
2023-05-06T13:37:33.249Z,6.2
2023-05-06T13:38:41.578Z,6.2
2023-05-06T13:39:49.905Z,6.2
2023-05-06T13:40:58.471Z,1.6
2023-05-06T13:42:08.125Z,1.6
2023-05-06T13:43:15.120Z,1.6
2023-05-06T13:44:23.663Z,1.9
2023-05-06T13:45:32.008Z,1.9
2023-05-06T13:46:40.386Z,1.9
2023-05-06T13:47:48.976Z,3.4
2023-05-06T13:48:57.221Z,3.4
2023-05-06T13:50:05.594Z,3.4
2023-05-06T13:51:14.095Z,2.1
2023-05-06T13:52:22.417Z,2.1
2023-05-06T13:53:30.761Z,2.1
2023-05-06T13:54:39.307Z,2.8
2023-05-06T13:55:47.632Z,2.8
2023-05-06T13:56:55.967Z,2.8
2023-05-06T13:58:04.513Z,1.3
2023-05-06T13:59:12.840Z,1.3
2023-05-06T14:00:21.184Z,1.3
2023-05-06T14:01:29.757Z,2
2023-05-06T14:02:38.244Z,2
2023-05-06T14:03:46.576Z,2
2023-05-06T14:04:55.171Z,1.2
2023-05-06T14:06:03.478Z,1.2
2023-05-06T14:07:11.793Z,1.2
2023-05-06T14:08:20.331Z,3.2
2023-05-06T14:09:28.664Z,3.2
2023-05-06T14:10:36.997Z,3.2
2023-05-06T14:11:45.535Z,1.7
2023-05-06T14:12:53.860Z,1.7
2023-05-06T14:14:05.402Z,1.7
2023-05-06T14:15:13.970Z,2.6
2023-05-06T14:16:22.345Z,2.6
2023-05-06T14:17:30.644Z,2.6
2023-05-06T14:18:39.188Z,2.4
2023-05-06T14:19:47.630Z,2.4
2023-05-06T14:20:55.880Z,2.4
2023-05-06T14:22:04.478Z,1.8
2023-05-06T14:23:12.826Z,1.8
2023-05-06T14:24:21.148Z,1.8
2023-05-06T14:25:29.706Z,2.7
2023-05-06T14:26:38.086Z,2.7
2023-05-06T14:27:46.367Z,2.7
2023-05-06T14:28:54.937Z,1.5
2023-05-06T14:30:03.293Z,1.5
2023-05-06T14:31:11.630Z,1.5
2023-05-06T14:32:20.165Z,1.2
2023-05-06T14:33:28.531Z,1.2
2023-05-06T14:34:36.897Z,1.2
2023-05-06T14:35:45.471Z,2.2
2023-05-06T14:36:53.776Z,2.2
2023-05-06T14:38:02.138Z,2.2
2023-05-06T14:39:10.688Z,3.4
2023-05-06T14:40:19.048Z,3.4
2023-05-06T14:41:27.393Z,3.4
2023-05-06T14:42:35.985Z,2.1
2023-05-06T14:43:44.312Z,2.1
2023-05-06T14:44:52.623Z,2.1
2023-05-06T14:46:01.210Z,1.3
2023-05-06T14:47:09.550Z,1.3
2023-05-06T14:48:17.891Z,1.3
2023-05-06T14:49:26.438Z,1.7
2023-05-06T14:50:34.783Z,1.7
2023-05-06T14:51:43.330Z,1.7
2023-05-06T14:52:51.672Z,2.3
2023-05-06T14:54:00.021Z,2.3
2023-05-06T14:55:08.492Z,2.3
2023-05-06T14:56:16.934Z,13.2
2023-05-06T14:57:25.267Z,13.2
2023-05-06T14:58:33.641Z,13.2
2023-05-06T14:59:42.204Z,1.5
2023-05-06T15:00:50.564Z,1.5
2023-05-06T15:01:58.875Z,1.5
2023-05-06T15:03:07.489Z,2.9
2023-05-06T15:04:15.790Z,2.9
2023-05-06T15:05:24.170Z,2.9
2023-05-06T15:06:32.700Z,2.8
2023-05-06T15:07:41.137Z,2.8
2023-05-06T15:08:49.375Z,2.8
2023-05-06T15:09:57.947Z,2.7
2023-05-06T15:11:06.309Z,2.7
2023-05-06T15:44:54.587Z,0
2023-05-06T15:46:02.844Z,0
2023-05-06T15:47:12.134Z,0
2023-05-06T15:48:20.661Z,1.2
2023-05-06T15:50:37.470Z,1.2
2023-05-06T15:51:45.887Z,3.9
2023-05-06T15:52:54.209Z,3.9
2023-05-06T15:54:02.555Z,3.9
2023-05-06T15:55:13.297Z,3.4
2023-05-06T15:56:19.445Z,3.4
2023-05-06T15:57:30.105Z,3.4
2023-05-06T15:58:36.355Z,2
2023-05-06T15:59:44.690Z,2
2023-05-06T16:00:53.159Z,2
2023-05-06T16:02:26.050Z,1.4
2023-05-06T16:03:12.143Z,1.4
2023-05-06T16:04:18.429Z,1.4
2023-05-06T16:05:26.841Z,1.4
2023-05-06T16:06:35.186Z,1.4
2023-05-06T16:07:43.525Z,1.4
2023-05-06T16:08:52.068Z,3.3
2023-05-06T16:10:00.413Z,3.3